createdAt,value
2022-07-29T00:01:44.317Z,18.70
2022-07-29T00:04:13.692Z,18.60
2022-07-29T00:06:42.965Z,18.60
2022-07-29T00:09:11.400Z,18.50
2022-07-29T00:11:40.265Z,18.40
2022-07-29T00:14:08.763Z,18.40
2022-07-29T00:16:38.674Z,18.40
2022-07-29T00:19:07.922Z,18.30
2022-07-29T00:21:36.458Z,18.30
2022-07-29T00:24:05.268Z,18.30
2022-07-29T00:26:33.703Z,18.40
2022-07-29T00:29:32.387Z,18.40
2022-07-29T00:31:53.202Z,18.40
2022-07-29T00:34:39.176Z,18.40
2022-07-29T00:37:07.872Z,18.30
2022-07-29T00:39:36.374Z,18.40
2022-07-29T00:42:06.057Z,18.40
2022-07-29T00:44:39.870Z,18.40
2022-07-29T00:47:10.457Z,18.40
2022-07-29T00:49:40.671Z,18.40
2022-07-29T00:52:10.987Z,18.40
2022-07-29T00:54:44.155Z,18.50
2022-07-29T00:57:14.135Z,18.60
2022-07-29T00:59:42.569Z,18.60
2022-07-29T01:02:12.676Z,18.60
2022-07-29T01:04:41.457Z,18.70
2022-07-29T01:07:10.263Z,18.70
2022-07-29T01:09:45.912Z,18.60
2022-07-29T01:12:18.728Z,18.60
2022-07-29T01:14:48.651Z,18.50
2022-07-29T01:17:26.075Z,18.50
2022-07-29T01:20:05.716Z,18.50
2022-07-29T01:23:05.119Z,18.40
2022-07-29T01:25:59.253Z,18.40
2022-07-29T01:28:59.887Z,18.50
2022-07-29T01:31:40.265Z,18.40
2022-07-29T01:34:27.269Z,18.50
2022-07-29T01:37:06.438Z,18.30
2022-07-29T01:39:39.392Z,18.20
2022-07-29T01:42:17.929Z,18.20
2022-07-29T01:44:59.468Z,18.20
2022-07-29T01:47:35.701Z,18.20
2022-07-29T01:50:11.015Z,18.20
2022-07-29T01:52:48.789Z,18.20
2022-07-29T01:55:22.145Z,18.20
2022-07-29T01:57:52.212Z,18.30
2022-07-29T02:00:23.779Z,18.40
2022-07-29T02:02:55.311Z,18.20
2022-07-29T02:05:25.835Z,18.20
2022-07-29T02:07:57.823Z,18.10
2022-07-29T02:10:30.539Z,18.10
2022-07-29T02:13:00.737Z,18.00
2022-07-29T02:15:34.813Z,18.00
2022-07-29T02:18:08.835Z,18.00
2022-07-29T02:20:38.399Z,18.00
2022-07-29T02:23:08.809Z,18.00
2022-07-29T02:25:38.508Z,18.00
2022-07-29T02:28:09.578Z,18.00
2022-07-29T02:30:44.078Z,17.90
2022-07-29T02:33:16.676Z,17.80
2022-07-29T02:35:47.974Z,17.70
2022-07-29T02:38:36.350Z,17.60
2022-07-29T02:41:12.549Z,17.70
2022-07-29T02:43:43.128Z,17.60
2022-07-29T02:46:28.382Z,17.60
2022-07-29T02:49:06.275Z,17.50
2022-07-29T02:51:45.332Z,17.50
2022-07-29T02:54:24.911Z,17.40
2022-07-29T02:56:56.561Z,17.30
2022-07-29T02:59:29.673Z,17.30
2022-07-29T03:02:01.605Z,17.30
2022-07-29T03:04:31.995Z,17.40
2022-07-29T03:07:02.616Z,17.30
2022-07-29T03:09:32.261Z,17.30
2022-07-29T03:12:00.818Z,17.30
2022-07-29T03:14:30.081Z,17.20
2022-07-29T03:17:00.595Z,17.10
2022-07-29T03:19:30.301Z,17.10
2022-07-29T03:21:59.789Z,17.10
2022-07-29T03:24:34.304Z,17.10
2022-07-29T03:27:03.489Z,17.00
2022-07-29T03:29:33.543Z,17.10
2022-07-29T03:32:08.579Z,17.00
2022-07-29T03:34:39.039Z,17.00
2022-07-29T03:37:08.507Z,16.90
2022-07-29T03:39:42.775Z,16.80
2022-07-29T03:42:15.773Z,16.80
2022-07-29T03:44:47.707Z,16.80
2022-07-29T03:47:21.429Z,16.90
2022-07-29T03:49:54.732Z,16.80
2022-07-29T03:52:24.355Z,16.80
2022-07-29T03:54:52.771Z,16.80
2022-07-29T03:57:22.500Z,16.80
2022-07-29T03:59:52.882Z,16.80
2022-07-29T04:02:28.691Z,17.00
2022-07-29T04:04:58.861Z,16.70
2022-07-29T04:07:27.413Z,16.70
2022-07-29T04:09:55.734Z,16.80
2022-07-29T04:12:24.010Z,16.80
2022-07-29T04:14:52.312Z,16.80
2022-07-29T04:17:22.014Z,16.80
2022-07-29T04:19:50.338Z,16.80
2022-07-29T04:22:18.717Z,16.70
2022-07-29T04:24:47.072Z,16.80
2022-07-29T04:27:15.410Z,16.70
2022-07-29T04:29:56.079Z,16.70
2022-07-29T04:32:27.587Z,16.70
2022-07-29T04:34:55.889Z,16.80
2022-07-29T04:37:24.251Z,16.90
2022-07-29T04:39:52.681Z,16.90
2022-07-29T04:42:27.465Z,17.00
2022-07-29T04:44:56.278Z,17.10
2022-07-29T04:47:25.939Z,17.10
2022-07-29T04:49:54.304Z,17.10
2022-07-29T04:52:22.680Z,17.00
2022-07-29T04:54:51.098Z,17.10
2022-07-29T04:57:19.578Z,17.20
2022-07-29T04:59:47.865Z,17.10
2022-07-29T05:02:16.253Z,17.20
2022-07-29T05:04:46.186Z,17.10
2022-07-29T05:07:19.232Z,17.10
2022-07-29T05:09:50.660Z,17.20
2022-07-29T05:12:19.000Z,17.50
2022-07-29T05:14:47.352Z,17.50
2022-07-29T05:17:15.736Z,17.50
2022-07-29T05:19:45.459Z,17.60
2022-07-29T05:22:13.802Z,17.70
2022-07-29T05:24:42.474Z,17.70
2022-07-29T05:27:11.536Z,17.70
2022-07-29T05:29:44.614Z,17.70
2022-07-29T05:32:14.240Z,17.80
2022-07-29T05:34:50.099Z,17.90
2022-07-29T05:37:21.714Z,18.00
2022-07-29T05:39:56.388Z,18.00
2022-07-29T05:42:25.854Z,18.00
2022-07-29T05:44:54.584Z,18.00
2022-07-29T05:47:22.998Z,18.10
2022-07-29T05:49:51.554Z,18.20
2022-07-29T05:52:21.729Z,18.20
2022-07-29T05:54:50.225Z,18.30
2022-07-29T05:57:19.168Z,18.40
2022-07-29T05:59:48.286Z,18.60
2022-07-29T06:02:17.746Z,18.70
2022-07-29T06:04:46.336Z,18.90
2022-07-29T06:07:14.849Z,19.00
2022-07-29T06:09:44.993Z,19.20
2022-07-29T06:12:13.409Z,19.50
2022-07-29T06:14:41.788Z,19.90
2022-07-29T06:17:12.535Z,20.00
2022-07-29T06:19:41.254Z,20.20
2022-07-29T06:22:09.624Z,20.40
2022-07-29T06:24:42.779Z,20.50
2022-07-29T06:27:12.739Z,20.80
2022-07-29T06:29:41.376Z,21.00
2022-07-29T06:32:10.153Z,21.20
2022-07-29T06:34:38.820Z,21.40
2022-07-29T06:37:15.380Z,21.40
2022-07-29T06:39:44.195Z,21.30
2022-07-29T06:42:13.914Z,21.30
2022-07-29T06:44:43.825Z,21.30
2022-07-29T06:47:12.957Z,21.30
2022-07-29T06:49:41.247Z,21.20
2022-07-29T06:52:09.553Z,21.30
2022-07-29T06:54:39.596Z,21.40
2022-07-29T06:57:08.105Z,21.40
2022-07-29T06:59:37.789Z,21.40
2022-07-29T07:02:06.449Z,21.50
2022-07-29T07:04:35.350Z,21.40
2022-07-29T07:07:03.703Z,21.30
2022-07-29T07:09:40.461Z,21.20
2022-07-29T07:12:10.036Z,21.00
2022-07-29T07:14:40.763Z,20.80
2022-07-29T07:17:09.316Z,20.80
2022-07-29T07:19:37.754Z,20.70
2022-07-29T07:22:06.378Z,20.60
2022-07-29T07:24:34.895Z,20.50
2022-07-29T07:27:03.291Z,20.30
2022-07-29T07:29:31.715Z,20.20
2022-07-29T07:32:01.687Z,20.10
2022-07-29T07:34:31.050Z,19.90
2022-07-29T07:36:59.449Z,19.80
2022-07-29T07:39:28.170Z,19.70
2022-07-29T07:41:56.616Z,19.70
2022-07-29T07:44:25.135Z,19.70
2022-07-29T07:46:53.542Z,19.70
2022-07-29T07:49:24.714Z,19.80
2022-07-29T07:51:53.710Z,19.90
2022-07-29T07:54:22.023Z,20.10
2022-07-29T07:56:53.394Z,20.10
2022-07-29T07:59:21.834Z,20.30
2022-07-29T08:01:55.693Z,20.70
2022-07-29T08:04:28.449Z,21.30
2022-07-29T08:06:59.146Z,22.20
2022-07-29T08:09:30.684Z,23.00
2022-07-29T08:12:00.478Z,23.60
2022-07-29T08:14:28.815Z,24.10
2022-07-29T08:16:57.247Z,24.30
2022-07-29T08:19:27.343Z,24.60
2022-07-29T08:21:56.106Z,24.90
2022-07-29T08:24:42.093Z,25.40
2022-07-29T08:27:33.416Z,25.70
2022-07-29T08:29:59.502Z,26.00
2022-07-29T08:32:52.117Z,26.30
2022-07-29T08:35:19.152Z,26.30
2022-07-29T08:37:47.810Z,26.70
2022-07-29T08:40:16.685Z,26.80
2022-07-29T08:42:45.005Z,27.00
2022-07-29T08:45:14.086Z,27.10
2022-07-29T08:47:42.816Z,27.10
2022-07-29T08:50:12.183Z,26.80
2022-07-29T08:52:44.209Z,26.50
2022-07-29T08:55:13.785Z,26.60
2022-07-29T08:57:51.957Z,26.80
2022-07-29T09:00:24.823Z,26.60
2022-07-29T09:03:00.201Z,26.80
2022-07-29T09:05:29.627Z,26.80
2022-07-29T09:07:59.798Z,27.10
2022-07-29T09:10:28.405Z,27.30
2022-07-29T09:12:57.437Z,27.20
2022-07-29T09:15:26.098Z,27.20
2022-07-29T09:17:56.313Z,27.30
2022-07-29T09:20:25.357Z,27.00
2022-07-29T09:22:54.768Z,27.10
2022-07-29T09:25:37.986Z,27.20
2022-07-29T09:28:10.397Z,27.20
2022-07-29T09:30:51.627Z,27.10
2022-07-29T09:33:20.300Z,27.00
2022-07-29T09:35:56.518Z,27.00
2022-07-29T09:38:25.704Z,27.10
2022-07-29T09:41:06.109Z,27.20
2022-07-29T09:43:35.467Z,27.40
2022-07-29T09:46:13.628Z,27.40
2022-07-29T09:48:42.094Z,27.50
2022-07-29T09:51:24.104Z,27.60
2022-07-29T09:53:55.424Z,27.70
2022-07-29T09:56:41.426Z,27.70
2022-07-29T09:59:12.180Z,27.70
2022-07-29T10:01:40.695Z,27.70
2022-07-29T10:04:09.311Z,27.60
2022-07-29T10:07:03.588Z,27.40
2022-07-29T10:09:33.357Z,27.50
2022-07-29T10:12:11.992Z,27.70
2022-07-29T10:14:40.907Z,28.00
2022-07-29T10:17:11.599Z,27.80
2022-07-29T10:19:41.029Z,27.90
2022-07-29T10:22:11.630Z,28.00
2022-07-29T10:24:42.912Z,28.00
2022-07-29T10:27:13.530Z,28.10
2022-07-29T10:29:41.886Z,28.10
2022-07-29T10:32:24.825Z,28.10
2022-07-29T10:35:18.037Z,28.20
2022-07-29T10:38:22.137Z,28.20
2022-07-29T10:41:23.587Z,28.20
2022-07-29T10:43:55.548Z,28.20
2022-07-29T10:46:25.587Z,28.30
2022-07-29T10:49:15.498Z,28.50
2022-07-29T10:52:06.495Z,28.60
2022-07-29T10:54:56.356Z,28.80
2022-07-29T10:57:52.407Z,28.90
2022-07-29T11:00:34.524Z,29.10
2022-07-29T11:03:04.853Z,29.20
2022-07-29T11:08:46.939Z,28.70
2022-07-29T11:11:43.711Z,28.90
2022-07-29T11:14:16.766Z,29.10
2022-07-29T11:17:09.112Z,29.20
2022-07-29T11:19:51.020Z,29.00
2022-07-29T11:22:36.005Z,28.80
2022-07-29T11:25:16.699Z,28.90
2022-07-29T11:27:46.440Z,28.90
2022-07-29T11:30:16.665Z,28.80
2022-07-29T11:32:49.532Z,28.80
2022-07-29T11:35:37.383Z,28.80
2022-07-29T11:38:28.354Z,28.80
2022-07-29T11:41:31.747Z,29.00
2022-07-29T11:44:02.332Z,28.90
2022-07-29T11:46:49.676Z,28.90
2022-07-29T11:49:32.035Z,29.20
2022-07-29T11:52:03.864Z,29.20
2022-07-29T11:54:38.865Z,29.40
2022-07-29T11:57:36.434Z,29.40
2022-07-29T12:00:12.645Z,29.40
2022-07-29T12:02:48.317Z,29.20
2022-07-29T12:05:35.820Z,29.10
2022-07-29T12:08:15.047Z,29.00
2022-07-29T12:10:44.852Z,29.10
2022-07-29T12:13:14.023Z,29.10
2022-07-29T12:15:47.221Z,29.10
2022-07-29T12:18:19.116Z,29.30
2022-07-29T12:20:50.678Z,29.20
2022-07-29T12:23:19.086Z,29.20
2022-07-29T12:25:49.943Z,29.50
2022-07-29T12:28:26.570Z,29.30
2022-07-29T12:30:56.112Z,29.50
2022-07-29T12:33:27.486Z,29.60
2022-07-29T12:36:09.465Z,29.70
2022-07-29T12:38:43.099Z,29.60
2022-07-29T12:41:12.285Z,29.70
2022-07-29T12:43:55.435Z,29.80
2022-07-29T12:46:23.944Z,29.90
2022-07-29T12:48:55.672Z,29.50
2022-07-29T12:51:33.526Z,29.30
2022-07-29T12:54:08.444Z,29.40
2022-07-29T12:56:44.948Z,29.40
2022-07-29T12:59:16.313Z,29.30
2022-07-29T13:01:45.164Z,29.20
2022-07-29T13:04:25.693Z,29.10
2022-07-29T13:08:29.523Z,29.30
2022-07-29T13:09:51.701Z,29.10
2022-07-29T13:12:20.098Z,29.30
2022-07-29T13:14:52.097Z,29.40
2022-07-29T13:17:23.923Z,29.50
2022-07-29T13:19:54.796Z,29.60
2022-07-29T13:22:27.255Z,29.60
2022-07-29T13:24:57.628Z,29.90
2022-07-29T13:27:28.437Z,30.10
2022-07-29T13:29:58.734Z,30.20
2022-07-29T13:32:29.159Z,30.30
2022-07-29T13:34:58.171Z,30.20
2022-07-29T13:37:30.846Z,30.10
2022-07-29T13:40:00.197Z,30.30
2022-07-29T13:42:28.770Z,30.60
2022-07-29T13:44:57.331Z,30.70
2022-07-29T13:47:32.099Z,30.80
2022-07-29T13:50:01.843Z,30.70
2022-07-29T13:52:32.033Z,30.80
2022-07-29T13:55:00.407Z,31.00
2022-07-29T13:57:29.657Z,31.30
2022-07-29T13:59:58.886Z,31.50
2022-07-29T14:02:27.271Z,31.40
2022-07-29T14:04:55.806Z,31.40
2022-07-29T14:07:24.850Z,31.50
2022-07-29T14:09:54.597Z,31.20
2022-07-29T14:12:23.540Z,30.90
2022-07-29T14:14:52.008Z,30.90
2022-07-29T14:17:20.370Z,30.80
2022-07-29T14:19:48.899Z,30.70
2022-07-29T14:22:19.918Z,30.90
2022-07-29T14:24:51.650Z,31.00
2022-07-29T14:27:37.772Z,31.10
2022-07-29T14:30:08.530Z,31.40
2022-07-29T14:32:37.123Z,31.50
2022-07-29T14:35:06.788Z,31.50
2022-07-29T14:37:39.359Z,31.70
2022-07-29T14:40:11.276Z,31.70
2022-07-29T14:42:41.640Z,31.50
2022-07-29T14:45:11.730Z,31.60
2022-07-29T14:47:41.023Z,31.50
2022-07-29T14:50:10.877Z,31.60
2022-07-29T14:52:39.406Z,31.30
2022-07-29T14:55:19.797Z,31.20
2022-07-29T14:57:51.052Z,30.80
2022-07-29T15:00:20.297Z,30.60
2022-07-29T15:03:04.203Z,30.30
2022-07-29T15:05:33.323Z,30.00
2022-07-29T15:08:02.086Z,30.10
2022-07-29T15:10:30.634Z,30.10
2022-07-29T15:13:00.466Z,30.40
2022-07-29T15:15:28.928Z,30.60
2022-07-29T15:17:57.434Z,30.80
2022-07-29T15:20:28.043Z,30.90
2022-07-29T15:22:57.003Z,30.90
2022-07-29T15:25:25.769Z,31.00
2022-07-29T15:28:00.934Z,30.80
2022-07-29T15:30:34.251Z,30.40
2022-07-29T15:33:04.859Z,30.00
2022-07-29T15:35:39.905Z,30.00
2022-07-29T15:38:09.944Z,30.30
2022-07-29T15:40:41.239Z,30.20
2022-07-29T15:43:10.091Z,30.00
2022-07-29T15:45:41.650Z,29.70
2022-07-29T15:48:14.749Z,29.60
2022-07-29T15:50:47.117Z,29.50
2022-07-29T15:53:16.084Z,29.30
2022-07-29T15:55:44.671Z,29.40
2022-07-29T15:58:13.037Z,29.60
2022-07-29T16:00:42.790Z,29.60
2022-07-29T16:03:11.275Z,29.60
2022-07-29T16:05:39.915Z,29.50
2022-07-29T16:08:08.281Z,29.50
2022-07-29T16:10:36.670Z,29.50
2022-07-29T16:13:05.373Z,29.70
2022-07-29T16:15:34.693Z,29.70
2022-07-29T16:18:04.773Z,29.60
2022-07-29T16:20:33.066Z,29.40
2022-07-29T16:23:01.725Z,29.20
2022-07-29T16:25:57.466Z,29.00
2022-07-29T16:28:18.621Z,28.80
2022-07-29T16:30:46.941Z,28.80
2022-07-29T16:33:16.668Z,28.80
2022-07-29T16:35:45.004Z,28.90
2022-07-29T16:38:13.322Z,28.90
2022-07-29T16:40:41.982Z,28.90
2022-07-29T16:43:10.788Z,28.70
2022-07-29T16:45:46.095Z,28.50
2022-07-29T16:48:18.683Z,28.20
2022-07-29T16:50:47.263Z,28.20
2022-07-29T16:53:15.860Z,28.40
2022-07-29T16:55:44.290Z,28.20
2022-07-29T16:58:13.240Z,28.10
2022-07-29T17:00:41.838Z,28.10
2022-07-29T17:03:11.548Z,27.90
2022-07-29T17:05:53.751Z,27.50
2022-07-29T17:08:23.083Z,27.50
2022-07-29T17:10:51.953Z,27.50
2022-07-29T17:13:20.532Z,27.20
2022-07-29T17:15:48.983Z,27.40
2022-07-29T17:18:17.322Z,27.10
2022-07-29T17:20:47.055Z,27.00
2022-07-29T17:23:15.386Z,26.90
2022-07-29T17:25:43.673Z,26.80
2022-07-29T17:28:12.065Z,26.70
2022-07-29T17:30:40.505Z,26.80
2022-07-29T17:33:08.903Z,26.70
2022-07-29T17:35:54.914Z,26.50
2022-07-29T17:38:24.876Z,26.50
2022-07-29T17:40:53.422Z,26.50
2022-07-29T17:43:21.777Z,26.50
2022-07-29T17:45:50.966Z,26.50
2022-07-29T17:48:20.354Z,26.50
2022-07-29T17:50:49.896Z,26.50
2022-07-29T17:53:18.602Z,26.60
2022-07-29T17:55:49.665Z,26.60
2022-07-29T17:58:18.084Z,26.40
2022-07-29T18:00:46.614Z,26.30
2022-07-29T18:03:15.212Z,26.20
2022-07-29T18:05:44.374Z,26.20
2022-07-29T18:08:13.041Z,26.10
2022-07-29T18:10:42.385Z,25.90
2022-07-29T18:13:13.257Z,25.90
2022-07-29T18:15:42.349Z,25.90
2022-07-29T18:18:11.023Z,25.60
2022-07-29T18:20:40.139Z,25.50
2022-07-29T18:23:08.536Z,25.30
2022-07-29T18:25:37.421Z,25.30
2022-07-29T18:28:07.010Z,25.20
2022-07-29T18:30:38.116Z,25.00
2022-07-29T18:33:24.312Z,24.80
2022-07-29T18:36:07.676Z,24.70
2022-07-29T18:38:39.309Z,24.60
2022-07-29T18:41:07.771Z,24.50
2022-07-29T18:43:36.356Z,24.50
2022-07-29T18:46:06.924Z,24.30
2022-07-29T18:48:35.514Z,24.20
2022-07-29T18:51:09.367Z,24.10
2022-07-29T18:53:38.485Z,24.00
2022-07-29T18:56:06.926Z,23.90
2022-07-29T18:58:37.017Z,23.90
2022-07-29T19:01:06.959Z,23.90
2022-07-29T19:03:35.366Z,23.90
2022-07-29T19:06:03.960Z,23.80
2022-07-29T19:08:33.393Z,23.70
2022-07-29T19:11:01.790Z,23.50
2022-07-29T19:13:30.974Z,23.50
2022-07-29T19:15:59.484Z,23.40
2022-07-29T19:18:29.309Z,23.40
2022-07-29T19:20:57.669Z,23.30
2022-07-29T19:23:26.021Z,23.30
2022-07-29T19:25:54.298Z,23.30
2022-07-29T19:28:22.809Z,23.20
2022-07-29T19:30:51.698Z,23.20
2022-07-29T19:33:20.923Z,23.10
2022-07-29T19:35:54.770Z,23.00
2022-07-29T19:38:23.586Z,22.90
2022-07-29T19:40:53.168Z,22.80
2022-07-29T19:43:52.207Z,22.70
2022-07-29T19:46:09.883Z,22.70
2022-07-29T19:48:38.394Z,22.60
2022-07-29T19:51:08.216Z,22.60
2022-07-29T19:53:36.757Z,22.60
2022-07-29T19:56:06.146Z,22.50
2022-07-29T19:58:37.544Z,22.40
2022-07-29T20:01:10.490Z,22.40
2022-07-29T20:03:40.209Z,22.30
2022-07-29T20:06:10.177Z,22.20
2022-07-29T20:08:38.572Z,22.10
2022-07-29T20:11:07.255Z,22.00
2022-07-29T20:13:35.648Z,21.90
2022-07-29T20:16:06.393Z,21.90
2022-07-29T20:18:35.080Z,21.80
2022-07-29T20:21:04.678Z,21.70
2022-07-29T20:23:34.740Z,21.70
2022-07-29T20:26:06.132Z,21.70
2022-07-29T20:28:37.178Z,21.60
2022-07-29T20:31:05.689Z,21.60
2022-07-29T20:33:34.043Z,21.50
2022-07-29T20:36:02.360Z,21.30
2022-07-29T20:38:30.880Z,21.30
2022-07-29T20:41:00.665Z,21.20
2022-07-29T20:43:29.029Z,21.10
2022-07-29T20:45:57.475Z,21.10
2022-07-29T20:48:25.886Z,21.10
2022-07-29T20:50:55.034Z,21.10
2022-07-29T20:53:23.593Z,21.10
2022-07-29T20:55:52.438Z,21.10
2022-07-29T20:58:23.499Z,21.20
2022-07-29T21:00:51.909Z,20.90
2022-07-29T21:03:20.267Z,20.80
2022-07-29T21:05:48.828Z,20.90
2022-07-29T21:08:17.124Z,20.90
2022-07-29T21:10:45.664Z,20.90
2022-07-29T21:13:14.771Z,20.80
2022-07-29T21:15:48.222Z,20.80
2022-07-29T21:18:27.194Z,20.80
2022-07-29T21:20:55.874Z,20.70
2022-07-29T21:23:24.828Z,20.60
2022-07-29T21:25:53.812Z,20.60
2022-07-29T21:28:27.065Z,20.60
2022-07-29T21:30:58.300Z,20.60
2022-07-29T21:33:27.759Z,20.50
2022-07-29T21:36:20.130Z,20.60
2022-07-29T21:38:45.081Z,20.50
2022-07-29T21:41:14.849Z,20.50
2022-07-29T21:43:43.544Z,20.40
2022-07-29T21:46:13.240Z,20.40
2022-07-29T21:48:44.586Z,20.30
2022-07-29T21:51:13.206Z,20.30
2022-07-29T21:53:41.680Z,20.20
2022-07-29T21:56:14.977Z,20.20
2022-07-29T21:58:44.067Z,20.10
2022-07-29T22:01:14.991Z,20.00
2022-07-29T22:03:43.323Z,20.10
2022-07-29T22:06:17.995Z,20.10
2022-07-29T22:08:48.595Z,20.10
2022-07-29T22:11:17.301Z,20.20
2022-07-29T22:13:48.575Z,20.10
2022-07-29T22:16:18.775Z,20.10
2022-07-29T22:18:48.301Z,20.10
2022-07-29T22:21:18.294Z,20.10
2022-07-29T22:23:46.757Z,20.10
2022-07-29T22:26:15.076Z,20.00
2022-07-29T22:28:43.399Z,20.00
2022-07-29T22:31:12.270Z,20.00
2022-07-29T22:33:42.150Z,19.90
2022-07-29T22:36:10.509Z,19.90
2022-07-29T22:38:38.891Z,19.80
2022-07-29T22:41:07.343Z,19.80
2022-07-29T22:43:36.635Z,19.80
2022-07-29T22:46:05.197Z,19.70
2022-07-29T22:48:33.650Z,19.70
2022-07-29T22:51:03.961Z,19.60
2022-07-29T22:53:32.399Z,19.60
2022-07-29T22:56:00.751Z,19.60
2022-07-29T22:58:29.169Z,19.60
2022-07-29T23:00:57.802Z,19.60
2022-07-29T23:03:26.181Z,19.50
2022-07-29T23:05:54.599Z,19.50
2022-07-29T23:08:24.349Z,19.50
2022-07-29T23:10:52.661Z,19.50
2022-07-29T23:13:21.020Z,19.40
2022-07-29T23:15:49.416Z,19.40
2022-07-29T23:18:17.815Z,19.40
2022-07-29T23:20:46.214Z,19.40
2022-07-29T23:23:14.543Z,19.60
2022-07-29T23:25:44.623Z,19.50
2022-07-29T23:28:14.338Z,19.50
2022-07-29T23:30:43.196Z,19.40
2022-07-29T23:33:11.557Z,19.40
2022-07-29T23:35:39.835Z,19.40
2022-07-29T23:38:08.285Z,19.40
2022-07-29T23:40:36.709Z,19.40
2022-07-29T23:43:08.462Z,19.50
2022-07-29T23:45:42.576Z,19.30
2022-07-29T23:48:12.959Z,19.20
2022-07-29T23:50:41.348Z,19.20
2022-07-29T23:53:09.820Z,19.10
2022-07-29T23:55:39.416Z,19.00
2022-07-29T23:58:09.285Z,19.00
